sensor_id;sensor_type;location;lat;lon;timestamp;P1;durP1;ratioP1;P2;durP2;ratioP2
24897;SDS011;12957;49.434;8.684;2022-12-07T00:01:07;13.77;;;6.83;;
24897;SDS011;12957;49.434;8.684;2022-12-07T00:03:33;12.17;;;6.90;;
24897;SDS011;12957;49.434;8.684;2022-12-07T00:05:59;9.33;;;5.87;;
24897;SDS011;12957;49.434;8.684;2022-12-07T00:08:25;15.37;;;7.20;;
24897;SDS011;12957;49.434;8.684;2022-12-07T00:10:51;13.17;;;6.80;;
24897;SDS011;12957;49.434;8.684;2022-12-07T00:13:16;13.20;;;6.60;;
24897;SDS011;12957;49.434;8.684;2022-12-07T00:15:42;11.07;;;6.53;;
24897;SDS011;12957;49.434;8.684;2022-12-07T00:18:07;13.90;;;6.90;;
24897;SDS011;12957;49.434;8.684;2022-12-07T00:20:33;11.00;;;6.60;;
24897;SDS011;12957;49.434;8.684;2022-12-07T00:22:59;12.23;;;6.13;;
24897;SDS011;12957;49.434;8.684;2022-12-07T00:25:24;12.27;;;6.47;;
24897;SDS011;12957;49.434;8.684;2022-12-07T00:27:50;11.23;;;6.40;;
24897;SDS011;12957;49.434;8.684;2022-12-07T00:30:15;10.43;;;6.70;;
24897;SDS011;12957;49.434;8.684;2022-12-07T00:32:41;11.30;;;5.93;;
24897;SDS011;12957;49.434;8.684;2022-12-07T00:35:06;12.03;;;7.40;;
24897;SDS011;12957;49.434;8.684;2022-12-07T00:37:32;13.67;;;7.03;;
24897;SDS011;12957;49.434;8.684;2022-12-07T00:39:57;10.30;;;6.47;;
24897;SDS011;12957;49.434;8.684;2022-12-07T00:42:23;11.33;;;6.93;;
24897;SDS011;12957;49.434;8.684;2022-12-07T00:44:48;12.93;;;7.27;;
24897;SDS011;12957;49.434;8.684;2022-12-07T00:47:14;15.87;;;7.13;;
24897;SDS011;12957;49.434;8.684;2022-12-07T00:49:39;11.37;;;6.90;;
24897;SDS011;12957;49.434;8.684;2022-12-07T00:52:05;11.17;;;7.10;;
24897;SDS011;12957;49.434;8.684;2022-12-07T00:54:30;11.60;;;6.73;;
24897;SDS011;12957;49.434;8.684;2022-12-07T00:56:55;13.70;;;6.80;;
24897;SDS011;12957;49.434;8.684;2022-12-07T00:59:21;15.67;;;6.63;;
24897;SDS011;12957;49.434;8.684;2022-12-07T01:01:46;11.83;;;6.43;;
24897;SDS011;12957;49.434;8.684;2022-12-07T01:04:12;13.77;;;6.43;;
24897;SDS011;12957;49.434;8.684;2022-12-07T01:06:37;11.13;;;6.40;;
24897;SDS011;12957;49.434;8.684;2022-12-07T01:09:03;10.40;;;6.50;;
24897;SDS011;12957;49.434;8.684;2022-12-07T01:11:29;12.87;;;6.70;;
24897;SDS011;12957;49.434;8.684;2022-12-07T01:13:56;14.27;;;7.60;;
24897;SDS011;12957;49.434;8.684;2022-12-07T01:16:22;11.87;;;7.20;;
24897;SDS011;12957;49.434;8.684;2022-12-07T01:18:50;13.13;;;6.97;;
24897;SDS011;12957;49.434;8.684;2022-12-07T01:21:18;14.03;;;7.23;;
24897;SDS011;12957;49.434;8.684;2022-12-07T01:23:46;12.00;;;6.73;;
24897;SDS011;12957;49.434;8.684;2022-12-07T01:26:12;12.40;;;6.97;;
24897;SDS011;12957;49.434;8.684;2022-12-07T01:28:39;12.67;;;6.80;;
24897;SDS011;12957;49.434;8.684;2022-12-07T01:31:09;15.43;;;7.00;;
24897;SDS011;12957;49.434;8.684;2022-12-07T01:33:43;12.93;;;7.27;;
24897;SDS011;12957;49.434;8.684;2022-12-07T01:36:26;13.27;;;7.67;;
24897;SDS011;12957;49.434;8.684;2022-12-07T01:38:54;15.70;;;7.60;;
24897;SDS011;12957;49.434;8.684;2022-12-07T01:41:21;15.70;;;7.63;;
24897;SDS011;12957;49.434;8.684;2022-12-07T01:46:36;15.57;;;7.63;;
24897;SDS011;12957;49.434;8.684;2022-12-07T01:49:03;14.67;;;7.83;;
24897;SDS011;12957;49.434;8.684;2022-12-07T01:51:30;14.43;;;7.47;;
24897;SDS011;12957;49.434;8.684;2022-12-07T01:53:55;14.83;;;7.73;;
24897;SDS011;12957;49.434;8.684;2022-12-07T01:56:22;15.73;;;7.43;;
24897;SDS011;12957;49.434;8.684;2022-12-07T01:58:50;15.23;;;7.90;;
24897;SDS011;12957;49.434;8.684;2022-12-07T02:01:17;13.23;;;7.17;;
24897;SDS011;12957;49.434;8.684;2022-12-07T02:03:43;11.97;;;7.20;;
24897;SDS011;12957;49.434;8.684;2022-12-07T02:06:10;14.00;;;7.80;;
24897;SDS011;12957;49.434;8.684;2022-12-07T02:08:37;13.70;;;7.43;;
24897;SDS011;12957;49.434;8.684;2022-12-07T02:11:03;16.50;;;7.17;;
24897;SDS011;12957;49.434;8.684;2022-12-07T02:13:31;13.03;;;7.13;;
24897;SDS011;12957;49.434;8.684;2022-12-07T02:21:51;13.00;;;7.10;;
24897;SDS011;12957;49.434;8.684;2022-12-07T02:30:00;13.80;;;7.10;;
24897;SDS011;12957;49.434;8.684;2022-12-07T02:32:35;12.53;;;7.87;;
24897;SDS011;12957;49.434;8.684;2022-12-07T02:43:04;17.77;;;8.43;;
24897;SDS011;12957;49.434;8.684;2022-12-07T02:45:34;14.57;;;7.60;;
24897;SDS011;12957;49.434;8.684;2022-12-07T02:48:01;11.60;;;7.40;;
24897;SDS011;12957;49.434;8.684;2022-12-07T02:50:27;14.33;;;7.83;;
24897;SDS011;12957;49.434;8.684;2022-12-07T02:52:53;14.60;;;7.80;;
24897;SDS011;12957;49.434;8.684;2022-12-07T02:55:19;13.10;;;7.27;;
24897;SDS011;12957;49.434;8.684;2022-12-07T02:57:54;14.70;;;7.07;;
24897;SDS011;12957;49.434;8.684;2022-12-07T03:00:29;13.07;;;7.03;;
24897;SDS011;12957;49.434;8.684;2022-12-07T03:03:04;11.40;;;7.13;;
24897;SDS011;12957;49.434;8.684;2022-12-07T03:05:46;12.20;;;6.53;;
24897;SDS011;12957;49.434;8.684;2022-12-07T03:18:47;14.63;;;7.43;;
24897;SDS011;12957;49.434;8.684;2022-12-07T03:21:34;10.90;;;6.87;;
24897;SDS011;12957;49.434;8.684;2022-12-07T03:24:04;11.43;;;6.83;;
24897;SDS011;12957;49.434;8.684;2022-12-07T03:26:36;14.23;;;7.10;;
24897;SDS011;12957;49.434;8.684;2022-12-07T03:29:14;13.70;;;6.93;;
24897;SDS011;12957;49.434;8.684;2022-12-07T03:31:48;13.03;;;6.87;;
24897;SDS011;12957;49.434;8.684;2022-12-07T03:34:24;12.53;;;7.53;;
24897;SDS011;12957;49.434;8.684;2022-12-07T03:37:06;10.57;;;6.70;;
24897;SDS011;12957;49.434;8.684;2022-12-07T03:39:39;12.83;;;7.03;;
24897;SDS011;12957;49.434;8.684;2022-12-07T03:42:08;14.43;;;7.33;;
24897;SDS011;12957;49.434;8.684;2022-12-07T03:44:35;13.83;;;7.57;;
24897;SDS011;12957;49.434;8.684;2022-12-07T03:57:07;12.67;;;7.10;;
24897;SDS011;12957;49.434;8.684;2022-12-07T03:59:33;11.57;;;7.37;;
24897;SDS011;12957;49.434;8.684;2022-12-07T04:02:03;11.40;;;6.70;;
24897;SDS011;12957;49.434;8.684;2022-12-07T04:04:30;12.00;;;6.73;;
24897;SDS011;12957;49.434;8.684;2022-12-07T04:06:55;11.27;;;6.80;;
24897;SDS011;12957;49.434;8.684;2022-12-07T04:09:21;18.37;;;7.17;;
24897;SDS011;12957;49.434;8.684;2022-12-07T04:11:46;13.77;;;7.17;;
24897;SDS011;12957;49.434;8.684;2022-12-07T04:14:12;13.90;;;7.17;;
24897;SDS011;12957;49.434;8.684;2022-12-07T04:16:47;11.57;;;6.90;;
24897;SDS011;12957;49.434;8.684;2022-12-07T04:19:14;11.10;;;6.83;;
24897;SDS011;12957;49.434;8.684;2022-12-07T04:21:39;14.00;;;7.50;;
24897;SDS011;12957;49.434;8.684;2022-12-07T04:24:05;11.43;;;6.30;;
24897;SDS011;12957;49.434;8.684;2022-12-07T04:26:31;11.10;;;6.77;;
24897;SDS011;12957;49.434;8.684;2022-12-07T04:28:56;11.97;;;6.60;;
24897;SDS011;12957;49.434;8.684;2022-12-07T04:31:22;12.13;;;6.73;;
24897;SDS011;12957;49.434;8.684;2022-12-07T04:33:47;13.83;;;7.20;;
24897;SDS011;12957;49.434;8.684;2022-12-07T04:36:13;13.27;;;7.17;;
24897;SDS011;12957;49.434;8.684;2022-12-07T04:38:38;11.33;;;7.00;;
24897;SDS011;12957;49.434;8.684;2022-12-07T04:41:07;12.77;;;6.90;;
24897;SDS011;12957;49.434;8.684;2022-12-07T04:43:34;14.97;;;6.90;;
24897;SDS011;12957;49.434;8.684;2022-12-07T04:45:59;11.83;;;6.50;;
24897;SDS011;12957;49.434;8.684;2022-12-07T04:48:25;9.97;;;6.50;;
24897;SDS011;12957;49.434;8.684;2022-12-07T04:50:51;9.83;;;6.60;;
24897;SDS011;12957;49.434;8.684;2022-12-07T04:53:16;12.63;;;6.57;;
24897;SDS011;12957;49.434;8.684;2022-12-07T04:55:42;12.80;;;7.17;;
24897;SDS011;12957;49.434;8.684;2022-12-07T04:58:07;14.73;;;6.97;;
24897;SDS011;12957;49.434;8.684;2022-12-07T05:00:33;11.53;;;7.40;;
24897;SDS011;12957;49.434;8.684;2022-12-07T05:02:58;10.90;;;6.93;;
24897;SDS011;12957;49.434;8.684;2022-12-07T05:05:23;9.93;;;6.17;;
24897;SDS011;12957;49.434;8.684;2022-12-07T05:07:49;13.53;;;6.97;;
24897;SDS011;12957;49.434;8.684;2022-12-07T05:10:15;11.77;;;7.10;;
24897;SDS011;12957;49.434;8.684;2022-12-07T05:12:40;13.40;;;6.57;;
24897;SDS011;12957;49.434;8.684;2022-12-07T05:15:06;10.80;;;7.30;;
24897;SDS011;12957;49.434;8.684;2022-12-07T05:17:31;13.60;;;7.03;;
24897;SDS011;12957;49.434;8.684;2022-12-07T05:19:57;13.80;;;7.53;;
24897;SDS011;12957;49.434;8.684;2022-12-07T05:22:23;12.43;;;7.00;;
24897;SDS011;12957;49.434;8.684;2022-12-07T05:24:53;12.03;;;7.90;;
24897;SDS011;12957;49.434;8.684;2022-12-07T05:27:19;14.13;;;7.20;;
24897;SDS011;12957;49.434;8.684;2022-12-07T05:29:44;13.60;;;6.90;;
24897;SDS011;12957;49.434;8.684;2022-12-07T05:32:10;13.77;;;6.57;;
24897;SDS011;12957;49.434;8.684;2022-12-07T05:34:35;12.57;;;6.93;;
24897;SDS011;12957;49.434;8.684;2022-12-07T05:37:01;14.83;;;7.43;;
24897;SDS011;12957;49.434;8.684;2022-12-07T05:39:26;13.53;;;7.03;;
24897;SDS011;12957;49.434;8.684;2022-12-07T05:41:52;15.10;;;6.57;;
24897;SDS011;12957;49.434;8.684;2022-12-07T05:44:36;11.27;;;6.70;;
24897;SDS011;12957;49.434;8.684;2022-12-07T05:47:01;11.03;;;6.10;;
24897;SDS011;12957;49.434;8.684;2022-12-07T05:49:27;11.27;;;6.70;;
24897;SDS011;12957;49.434;8.684;2022-12-07T05:51:52;10.60;;;6.53;;
24897;SDS011;12957;49.434;8.684;2022-12-07T05:54:18;11.67;;;6.37;;
24897;SDS011;12957;49.434;8.684;2022-12-07T05:56:43;12.40;;;7.20;;
24897;SDS011;12957;49.434;8.684;2022-12-07T05:59:09;11.60;;;6.63;;
24897;SDS011;12957;49.434;8.684;2022-12-07T06:02:11;11.23;;;6.43;;
24897;SDS011;12957;49.434;8.684;2022-12-07T06:04:38;10.70;;;6.40;;
24897;SDS011;12957;49.434;8.684;2022-12-07T06:07:08;11.87;;;7.07;;
24897;SDS011;12957;49.434;8.684;2022-12-07T06:09:34;10.10;;;6.20;;
24897;SDS011;12957;49.434;8.684;2022-12-07T06:12:00;13.47;;;7.07;;
24897;SDS011;12957;49.434;8.684;2022-12-07T06:14:44;10.40;;;6.57;;
24897;SDS011;12957;49.434;8.684;2022-12-07T06:17:09;12.20;;;6.90;;
24897;SDS011;12957;49.434;8.684;2022-12-07T06:19:35;13.93;;;7.70;;
24897;SDS011;12957;49.434;8.684;2022-12-07T06:22:01;13.20;;;7.60;;
24897;SDS011;12957;49.434;8.684;2022-12-07T06:24:27;16.43;;;8.80;;
24897;SDS011;12957;49.434;8.684;2022-12-07T06:26:53;12.20;;;7.90;;
24897;SDS011;12957;49.434;8.684;2022-12-07T06:29:18;14.80;;;8.50;;
24897;SDS011;12957;49.434;8.684;2022-12-07T06:31:44;15.37;;;8.10;;
24897;SDS011;12957;49.434;8.684;2022-12-07T06:34:11;17.73;;;8.67;;
24897;SDS011;12957;49.434;8.684;2022-12-07T06:36:37;13.83;;;8.10;;
24897;SDS011;12957;49.434;8.684;2022-12-07T06:39:03;14.37;;;8.37;;
24897;SDS011;12957;49.434;8.684;2022-12-07T06:41:29;14.50;;;8.27;;
24897;SDS011;12957;49.434;8.684;2022-12-07T06:43:55;16.83;;;9.17;;
24897;SDS011;12957;49.434;8.684;2022-12-07T06:46:20;23.40;;;9.00;;
24897;SDS011;12957;49.434;8.684;2022-12-07T06:48:46;17.43;;;8.43;;
24897;SDS011;12957;49.434;8.684;2022-12-07T06:51:11;17.17;;;8.43;;
24897;SDS011;12957;49.434;8.684;2022-12-07T06:53:37;15.77;;;7.70;;
24897;SDS011;12957;49.434;8.684;2022-12-07T06:56:03;15.13;;;8.40;;
24897;SDS011;12957;49.434;8.684;2022-12-07T06:58:29;16.17;;;8.30;;
24897;SDS011;12957;49.434;8.684;2022-12-07T07:01:00;18.57;;;9.63;;
24897;SDS011;12957;49.434;8.684;2022-12-07T07:03:25;13.40;;;8.30;;
24897;SDS011;12957;49.434;8.684;2022-12-07T07:05:51;15.13;;;8.47;;
24897;SDS011;12957;49.434;8.684;2022-12-07T07:08:16;13.17;;;7.93;;
24897;SDS011;12957;49.434;8.684;2022-12-07T07:10:42;14.07;;;8.17;;
24897;SDS011;12957;49.434;8.684;2022-12-07T07:13:07;16.77;;;8.70;;
24897;SDS011;12957;49.434;8.684;2022-12-07T07:15:33;16.33;;;8.33;;
24897;SDS011;12957;49.434;8.684;2022-12-07T07:17:59;18.30;;;9.23;;
24897;SDS011;12957;49.434;8.684;2022-12-07T07:20:25;17.73;;;9.43;;
24897;SDS011;12957;49.434;8.684;2022-12-07T07:22:53;16.07;;;8.80;;
24897;SDS011;12957;49.434;8.684;2022-12-07T07:25:19;19.30;;;9.43;;
24897;SDS011;12957;49.434;8.684;2022-12-07T07:27:44;17.50;;;9.10;;
24897;SDS011;12957;49.434;8.684;2022-12-07T07:30:10;18.80;;;10.10;;
24897;SDS011;12957;49.434;8.684;2022-12-07T07:32:36;21.03;;;9.20;;
24897;SDS011;12957;49.434;8.684;2022-12-07T07:35:01;16.97;;;8.27;;
24897;SDS011;12957;49.434;8.684;2022-12-07T07:37:27;18.60;;;9.30;;
24897;SDS011;12957;49.434;8.684;2022-12-07T07:39:52;18.07;;;9.87;;
24897;SDS011;12957;49.434;8.684;2022-12-07T07:42:18;19.90;;;10.33;;
24897;SDS011;12957;49.434;8.684;2022-12-07T07:44:43;17.40;;;9.50;;
24897;SDS011;12957;49.434;8.684;2022-12-07T07:47:09;20.40;;;9.87;;
24897;SDS011;12957;49.434;8.684;2022-12-07T07:49:34;19.03;;;9.83;;
24897;SDS011;12957;49.434;8.684;2022-12-07T07:52:00;24.23;;;12.70;;
24897;SDS011;12957;49.434;8.684;2022-12-07T07:54:25;16.60;;;9.57;;
24897;SDS011;12957;49.434;8.684;2022-12-07T07:56:51;15.07;;;8.23;;
24897;SDS011;12957;49.434;8.684;2022-12-07T07:59:17;19.87;;;11.13;;
24897;SDS011;12957;49.434;8.684;2022-12-07T08:01:43;17.77;;;9.37;;
24897;SDS011;12957;49.434;8.684;2022-12-07T08:04:08;19.77;;;9.60;;
24897;SDS011;12957;49.434;8.684;2022-12-07T08:06:34;24.43;;;9.87;;
24897;SDS011;12957;49.434;8.684;2022-12-07T08:08:59;19.93;;;9.77;;
24897;SDS011;12957;49.434;8.684;2022-12-07T08:11:25;16.57;;;9.37;;
24897;SDS011;12957;49.434;8.684;2022-12-07T08:13:50;19.53;;;9.33;;
24897;SDS011;12957;49.434;8.684;2022-12-07T08:16:16;17.53;;;9.13;;
24897;SDS011;12957;49.434;8.684;2022-12-07T08:18:42;18.27;;;9.77;;
24897;SDS011;12957;49.434;8.684;2022-12-07T08:21:12;20.13;;;10.23;;
24897;SDS011;12957;49.434;8.684;2022-12-07T08:23:38;22.33;;;10.33;;
24897;SDS011;12957;49.434;8.684;2022-12-07T08:26:05;19.67;;;9.33;;
24897;SDS011;12957;49.434;8.684;2022-12-07T08:28:31;17.33;;;9.70;;
24897;SDS011;12957;49.434;8.684;2022-12-07T08:31:05;18.80;;;9.50;;
24897;SDS011;12957;49.434;8.684;2022-12-07T08:33:32;17.80;;;9.50;;
24897;SDS011;12957;49.434;8.684;2022-12-07T08:36:01;18.40;;;9.83;;
24897;SDS011;12957;49.434;8.684;2022-12-07T08:38:29;31.30;;;11.80;;
24897;SDS011;12957;49.434;8.684;2022-12-07T08:40:55;27.37;;;9.80;;
24897;SDS011;12957;49.434;8.684;2022-12-07T08:43:21;32.83;;;11.23;;
24897;SDS011;12957;49.434;8.684;2022-12-07T08:45:47;26.60;;;11.53;;
24897;SDS011;12957;49.434;8.684;2022-12-07T08:48:14;24.83;;;11.43;;
24897;SDS011;12957;49.434;8.684;2022-12-07T08:50:42;22.67;;;12.03;;
24897;SDS011;12957;49.434;8.684;2022-12-07T08:53:07;22.53;;;11.93;;
24897;SDS011;12957;49.434;8.684;2022-12-07T08:55:33;24.77;;;12.30;;
24897;SDS011;12957;49.434;8.684;2022-12-07T08:57:59;21.53;;;11.30;;
24897;SDS011;12957;49.434;8.684;2022-12-07T09:00:25;22.00;;;11.47;;
24897;SDS011;12957;49.434;8.684;2022-12-07T09:02:51;26.70;;;12.13;;
24897;SDS011;12957;49.434;8.684;2022-12-07T09:05:17;24.83;;;10.83;;
24897;SDS011;12957;49.434;8.684;2022-12-07T09:07:46;22.93;;;12.10;;
24897;SDS011;12957;49.434;8.684;2022-12-07T09:10:14;27.00;;;12.30;;
24897;SDS011;12957;49.434;8.684;2022-12-07T09:12:39;21.27;;;11.60;;
24897;SDS011;12957;49.434;8.684;2022-12-07T09:15:05;18.97;;;11.37;;
24897;SDS011;12957;49.434;8.684;2022-12-07T09:17:34;25.67;;;11.30;;
24897;SDS011;12957;49.434;8.684;2022-12-07T09:20:01;23.77;;;11.60;;
24897;SDS011;12957;49.434;8.684;2022-12-07T09:22:30;19.23;;;10.63;;
24897;SDS011;12957;49.434;8.684;2022-12-07T09:24:57;22.83;;;11.30;;
24897;SDS011;12957;49.434;8.684;2022-12-07T09:27:23;20.50;;;11.17;;
24897;SDS011;12957;49.434;8.684;2022-12-07T09:29:48;20.80;;;11.63;;
24897;SDS011;12957;49.434;8.684;2022-12-07T09:32:14;24.33;;;12.27;;
24897;SDS011;12957;49.434;8.684;2022-12-07T09:34:39;24.73;;;11.77;;
24897;SDS011;12957;49.434;8.684;2022-12-07T09:37:05;25.70;;;12.10;;
24897;SDS011;12957;49.434;8.684;2022-12-07T09:39:31;22.87;;;11.80;;
24897;SDS011;12957;49.434;8.684;2022-12-07T09:41:57;27.70;;;11.80;;
24897;SDS011;12957;49.434;8.684;2022-12-07T09:44:24;24.13;;;12.37;;
24897;SDS011;12957;49.434;8.684;2022-12-07T09:46:50;24.07;;;11.90;;
24897;SDS011;12957;49.434;8.684;2022-12-07T09:49:18;22.33;;;11.47;;
24897;SDS011;12957;49.434;8.684;2022-12-07T09:51:45;28.93;;;12.70;;
24897;SDS011;12957;49.434;8.684;2022-12-07T09:54:14;26.67;;;12.47;;
24897;SDS011;12957;49.434;8.684;2022-12-07T09:56:41;22.33;;;12.00;;
24897;SDS011;12957;49.434;8.684;2022-12-07T09:59:09;21.83;;;11.57;;
24897;SDS011;12957;49.434;8.684;2022-12-07T10:01:38;22.03;;;11.60;;
24897;SDS011;12957;49.434;8.684;2022-12-07T10:04:14;20.17;;;10.83;;
24897;SDS011;12957;49.434;8.684;2022-12-07T10:06:42;23.27;;;12.07;;
24897;SDS011;12957;49.434;8.684;2022-12-07T10:09:11;22.77;;;11.17;;
24897;SDS011;12957;49.434;8.684;2022-12-07T10:14:37;20.37;;;11.23;;
24897;SDS011;12957;49.434;8.684;2022-12-07T10:20:13;20.93;;;11.70;;
24897;SDS011;12957;49.434;8.684;2022-12-07T10:25:30;23.97;;;11.47;;
24897;SDS011;12957;49.434;8.684;2022-12-07T10:28:11;21.97;;;11.47;;
24897;SDS011;12957;49.434;8.684;2022-12-07T10:30:47;19.70;;;10.93;;
24897;SDS011;12957;49.434;8.684;2022-12-07T10:36:00;27.10;;;12.37;;
24897;SDS011;12957;49.434;8.684;2022-12-07T10:38:27;21.57;;;11.33;;
24897;SDS011;12957;49.434;8.684;2022-12-07T10:41:03;24.07;;;12.43;;
24897;SDS011;12957;49.434;8.684;2022-12-07T10:43:30;24.43;;;11.60;;
24897;SDS011;12957;49.434;8.684;2022-12-07T10:46:15;22.50;;;11.20;;
24897;SDS011;12957;49.434;8.684;2022-12-07T10:51:27;24.00;;;12.00;;
24897;SDS011;12957;49.434;8.684;2022-12-07T10:56:34;22.40;;;10.77;;
24897;SDS011;12957;49.434;8.684;2022-12-07T10:59:14;24.93;;;11.00;;
24897;SDS011;12957;49.434;8.684;2022-12-07T11:01:51;25.77;;;11.80;;
24897;SDS011;12957;49.434;8.684;2022-12-07T11:04:35;25.73;;;11.83;;
24897;SDS011;12957;49.434;8.684;2022-12-07T11:18:22;22.90;;;11.13;;
24897;SDS011;12957;49.434;8.684;2022-12-07T11:20:45;26.27;;;11.30;;
24897;SDS011;12957;49.434;8.684;2022-12-07T11:23:28;19.60;;;11.50;;
24897;SDS011;12957;49.434;8.684;2022-12-07T11:31:35;21.83;;;10.90;;
24897;SDS011;12957;49.434;8.684;2022-12-07T11:34:34;22.63;;;11.73;;
24897;SDS011;12957;49.434;8.684;2022-12-07T11:37:21;22.23;;;11.10;;
24897;SDS011;12957;49.434;8.684;2022-12-07T11:39:54;19.90;;;11.73;;
24897;SDS011;12957;49.434;8.684;2022-12-07T11:42:29;21.53;;;11.10;;
24897;SDS011;12957;49.434;8.684;2022-12-07T11:47:25;21.00;;;11.63;;
24897;SDS011;12957;49.434;8.684;2022-12-07T11:55:21;21.13;;;11.20;;
24897;SDS011;12957;49.434;8.684;2022-12-07T11:57:51;21.23;;;11.27;;
24897;SDS011;12957;49.434;8.684;2022-12-07T12:00:21;22.10;;;11.10;;
24897;SDS011;12957;49.434;8.684;2022-12-07T12:02:56;20.07;;;11.43;;
24897;SDS011;12957;49.434;8.684;2022-12-07T12:05:25;20.90;;;11.37;;
24897;SDS011;12957;49.434;8.684;2022-12-07T12:08:13;24.63;;;11.77;;
24897;SDS011;12957;49.434;8.684;2022-12-07T12:10:55;18.43;;;10.77;;
24897;SDS011;12957;49.434;8.684;2022-12-07T12:21:15;18.80;;;11.73;;
24897;SDS011;12957;49.434;8.684;2022-12-07T12:23:44;20.03;;;11.13;;
24897;SDS011;12957;49.434;8.684;2022-12-07T12:26:22;24.50;;;12.10;;
24897;SDS011;12957;49.434;8.684;2022-12-07T12:28:50;19.77;;;11.27;;
24897;SDS011;12957;49.434;8.684;2022-12-07T12:34:03;23.23;;;11.17;;
24897;SDS011;12957;49.434;8.684;2022-12-07T12:36:43;19.87;;;11.20;;
24897;SDS011;12957;49.434;8.684;2022-12-07T12:51:45;22.80;;;10.43;;
24897;SDS011;12957;49.434;8.684;2022-12-07T12:54:18;17.00;;;10.23;;
24897;SDS011;12957;49.434;8.684;2022-12-07T12:56:55;21.97;;;11.27;;
24897;SDS011;12957;49.434;8.684;2022-12-07T13:05:39;21.13;;;10.97;;
24897;SDS011;12957;49.434;8.684;2022-12-07T13:15:36;19.17;;;10.43;;
24897;SDS011;12957;49.434;8.684;2022-12-07T13:21:01;17.83;;;9.50;;
24897;SDS011;12957;49.434;8.684;2022-12-07T13:26:23;19.03;;;9.57;;
24897;SDS011;12957;49.434;8.684;2022-12-07T13:31:35;18.30;;;9.23;;
24897;SDS011;12957;49.434;8.684;2022-12-07T13:34:04;17.07;;;9.10;;
24897;SDS011;12957;49.434;8.684;2022-12-07T13:36:39;14.93;;;8.73;;
24897;SDS011;12957;49.434;8.684;2022-12-07T13:41:41;15.33;;;7.97;;
24897;SDS011;12957;49.434;8.684;2022-12-07T13:44:13;11.83;;;7.17;;
24897;SDS011;12957;49.434;8.684;2022-12-07T13:46:44;11.80;;;7.43;;
24897;SDS011;12957;49.434;8.684;2022-12-07T13:49:19;11.03;;;6.40;;
24897;SDS011;12957;49.434;8.684;2022-12-07T13:51:46;10.03;;;6.60;;
24897;SDS011;12957;49.434;8.684;2022-12-07T13:54:12;12.63;;;5.97;;
24897;SDS011;12957;49.434;8.684;2022-12-07T13:56:38;10.70;;;5.93;;
24897;SDS011;12957;49.434;8.684;2022-12-07T13:59:13;7.60;;;5.33;;
24897;SDS011;12957;49.434;8.684;2022-12-07T14:01:41;6.87;;;5.10;;
24897;SDS011;12957;49.434;8.684;2022-12-07T14:04:16;8.50;;;4.67;;
24897;SDS011;12957;49.434;8.684;2022-12-07T14:06:51;8.57;;;5.13;;
24897;SDS011;12957;49.434;8.684;2022-12-07T14:11:47;7.60;;;4.57;;
24897;SDS011;12957;49.434;8.684;2022-12-07T14:14:15;13.63;;;6.57;;
24897;SDS011;12957;49.434;8.684;2022-12-07T14:16:55;7.53;;;4.43;;
24897;SDS011;12957;49.434;8.684;2022-12-07T14:19:39;8.73;;;4.63;;
24897;SDS011;12957;49.434;8.684;2022-12-07T14:22:06;7.13;;;4.20;;
24897;SDS011;12957;49.434;8.684;2022-12-07T14:24:40;7.63;;;4.37;;
24897;SDS011;12957;49.434;8.684;2022-12-07T14:27:15;7.37;;;4.07;;
24897;SDS011;12957;49.434;8.684;2022-12-07T14:29:45;6.90;;;4.00;;
24897;SDS011;12957;49.434;8.684;2022-12-07T14:37:24;8.10;;;5.20;;
24897;SDS011;12957;49.434;8.684;2022-12-07T14:39:50;10.13;;;5.80;;
24897;SDS011;12957;49.434;8.684;2022-12-07T14:42:15;7.87;;;5.37;;
24897;SDS011;12957;49.434;8.684;2022-12-07T14:44:41;8.80;;;4.93;;
24897;SDS011;12957;49.434;8.684;2022-12-07T14:47:09;7.57;;;5.17;;
24897;SDS011;12957;49.434;8.684;2022-12-07T14:49:35;9.60;;;5.20;;
24897;SDS011;12957;49.434;8.684;2022-12-07T14:52:00;10.77;;;5.83;;
24897;SDS011;12957;49.434;8.684;2022-12-07T14:54:26;10.07;;;5.57;;
24897;SDS011;12957;49.434;8.684;2022-12-07T14:56:56;9.23;;;5.23;;
24897;SDS011;12957;49.434;8.684;2022-12-07T14:59:21;11.40;;;6.00;;
24897;SDS011;12957;49.434;8.684;2022-12-07T15:01:47;12.10;;;6.67;;
24897;SDS011;12957;49.434;8.684;2022-12-07T15:04:12;10.90;;;5.70;;
24897;SDS011;12957;49.434;8.684;2022-12-07T15:06:38;13.27;;;6.27;;
24897;SDS011;12957;49.434;8.684;2022-12-07T15:09:04;13.17;;;6.07;;
24897;SDS011;12957;49.434;8.684;2022-12-07T15:11:29;14.17;;;5.60;;
24897;SDS011;12957;49.434;8.684;2022-12-07T15:13:55;11.70;;;6.27;;
24897;SDS011;12957;49.434;8.684;2022-12-07T15:16:33;15.07;;;7.37;;
24897;SDS011;12957;49.434;8.684;2022-12-07T15:18:58;12.43;;;6.43;;
24897;SDS011;12957;49.434;8.684;2022-12-07T15:21:24;10.77;;;6.50;;
24897;SDS011;12957;49.434;8.684;2022-12-07T15:23:49;13.20;;;7.20;;
24897;SDS011;12957;49.434;8.684;2022-12-07T15:26:15;12.00;;;7.27;;
24897;SDS011;12957;49.434;8.684;2022-12-07T15:28:41;19.30;;;7.93;;
24897;SDS011;12957;49.434;8.684;2022-12-07T15:31:16;14.70;;;6.60;;
24897;SDS011;12957;49.434;8.684;2022-12-07T15:33:42;13.23;;;6.67;;
24897;SDS011;12957;49.434;8.684;2022-12-07T15:36:08;13.03;;;6.10;;
24897;SDS011;12957;49.434;8.684;2022-12-07T15:38:43;9.70;;;5.50;;
24897;SDS011;12957;49.434;8.684;2022-12-07T15:41:08;11.07;;;6.03;;
24897;SDS011;12957;49.434;8.684;2022-12-07T15:43:35;12.40;;;7.13;;
24897;SDS011;12957;49.434;8.684;2022-12-07T15:46:19;16.90;;;6.77;;
24897;SDS011;12957;49.434;8.684;2022-12-07T15:48:45;15.17;;;6.97;;
24897;SDS011;12957;49.434;8.684;2022-12-07T15:51:10;11.57;;;6.63;;
24897;SDS011;12957;49.434;8.684;2022-12-07T15:53:36;9.07;;;5.90;;
24897;SDS011;12957;49.434;8.684;2022-12-07T15:56:05;11.90;;;6.43;;
24897;SDS011;12957;49.434;8.684;2022-12-07T15:58:31;13.33;;;6.40;;
24897;SDS011;12957;49.434;8.684;2022-12-07T16:00:57;14.87;;;6.10;;
24897;SDS011;12957;49.434;8.684;2022-12-07T16:03:22;9.70;;;5.90;;
24897;SDS011;12957;49.434;8.684;2022-12-07T16:05:48;14.43;;;6.33;;
24897;SDS011;12957;49.434;8.684;2022-12-07T16:08:14;11.43;;;6.47;;
24897;SDS011;12957;49.434;8.684;2022-12-07T16:10:40;21.10;;;6.40;;
24897;SDS011;12957;49.434;8.684;2022-12-07T16:13:08;15.50;;;5.77;;
24897;SDS011;12957;49.434;8.684;2022-12-07T16:15:39;13.50;;;6.47;;
24897;SDS011;12957;49.434;8.684;2022-12-07T16:18:05;14.30;;;5.97;;
24897;SDS011;12957;49.434;8.684;2022-12-07T16:20:30;10.50;;;6.20;;
24897;SDS011;12957;49.434;8.684;2022-12-07T16:22:56;11.87;;;7.03;;
24897;SDS011;12957;49.434;8.684;2022-12-07T16:25:21;13.97;;;6.50;;
24897;SDS011;12957;49.434;8.684;2022-12-07T16:27:47;11.23;;;7.30;;
24897;SDS011;12957;49.434;8.684;2022-12-07T16:30:13;13.13;;;7.53;;
24897;SDS011;12957;49.434;8.684;2022-12-07T16:32:40;12.03;;;7.03;;
24897;SDS011;12957;49.434;8.684;2022-12-07T16:35:05;12.00;;;6.97;;
24897;SDS011;12957;49.434;8.684;2022-12-07T16:37:31;14.17;;;7.37;;
24897;SDS011;12957;49.434;8.684;2022-12-07T16:39:56;13.40;;;7.50;;
24897;SDS011;12957;49.434;8.684;2022-12-07T16:42:22;12.20;;;7.23;;
24897;SDS011;12957;49.434;8.684;2022-12-07T16:44:47;16.77;;;7.57;;
24897;SDS011;12957;49.434;8.684;2022-12-07T16:47:13;12.57;;;7.93;;
24897;SDS011;12957;49.434;8.684;2022-12-07T16:49:39;17.80;;;8.20;;
24897;SDS011;12957;49.434;8.684;2022-12-07T16:52:04;11.60;;;7.33;;
24897;SDS011;12957;49.434;8.684;2022-12-07T16:54:29;16.00;;;7.73;;
24897;SDS011;12957;49.434;8.684;2022-12-07T16:56:58;16.30;;;8.03;;
24897;SDS011;12957;49.434;8.684;2022-12-07T16:59:23;17.73;;;8.60;;